sensor_id;sensor_type;location;lat;lon;timestamp;pressure;altitude;pressure_sealevel;temperature;humidity
13954;BME280;7049;49.444;8.522;2023-05-16T00:04:13;-11160.47;;;-3.47;75.87
13954;BME280;7049;49.444;8.522;2023-05-16T00:09:15;-11160.47;;;-3.47;76.14
13954;BME280;7049;49.444;8.522;2023-05-16T00:14:18;-11160.47;;;-3.47;76.40
13954;BME280;7049;49.444;8.522;2023-05-16T00:19:19;-11160.47;;;-3.47;76.69
13954;BME280;7049;49.444;8.522;2023-05-16T00:24:21;-11160.47;;;-3.47;77.96
13954;BME280;7049;49.444;8.522;2023-05-16T00:29:24;-11160.47;;;-3.47;78.22
13954;BME280;7049;49.444;8.522;2023-05-16T00:34:25;-11160.47;;;-3.47;78.68
13954;BME280;7049;49.444;8.522;2023-05-16T00:39:27;-11160.47;;;-3.47;78.99
13954;BME280;7049;49.444;8.522;2023-05-16T00:44:31;-11160.47;;;-3.47;79.04
13954;BME280;7049;49.444;8.522;2023-05-16T00:49:32;-11160.47;;;-3.47;79.40
13954;BME280;7049;49.444;8.522;2023-05-16T00:54:34;-11160.47;;;-3.47;78.88
13954;BME280;7049;49.444;8.522;2023-05-16T00:59:37;-11160.47;;;-3.47;78.89
13954;BME280;7049;49.444;8.522;2023-05-16T01:04:39;-11160.47;;;-3.47;79.18
13954;BME280;7049;49.444;8.522;2023-05-16T01:09:41;-11160.47;;;-3.47;79.65
13954;BME280;7049;49.444;8.522;2023-05-16T01:14:50;-11160.47;;;-3.47;79.71
13954;BME280;7049;49.444;8.522;2023-05-16T01:20:02;-11160.47;;;-3.47;80.12
13954;BME280;7049;49.444;8.522;2023-05-16T01:25:15;-11160.47;;;-3.47;79.98
13954;BME280;7049;49.444;8.522;2023-05-16T01:30:21;-11160.47;;;-3.47;80.19
13954;BME280;7049;49.444;8.522;2023-05-16T01:35:22;-11160.47;;;-3.47;80.71
13954;BME280;7049;49.444;8.522;2023-05-16T01:40:29;-11160.47;;;-3.47;81.32
13954;BME280;7049;49.444;8.522;2023-05-16T01:46:02;-11160.47;;;-3.47;81.03
13954;BME280;7049;49.444;8.522;2023-05-16T01:51:06;-11160.47;;;-3.47;81.78
13954;BME280;7049;49.444;8.522;2023-05-16T01:56:14;-11160.47;;;-3.47;82.18
13954;BME280;7049;49.444;8.522;2023-05-16T02:01:17;-11160.47;;;-3.47;81.76
13954;BME280;7049;49.444;8.522;2023-05-16T02:06:19;-11160.47;;;-3.47;81.02
13954;BME280;7049;49.444;8.522;2023-05-16T02:11:20;-11160.47;;;-3.47;81.38
13954;BME280;7049;49.444;8.522;2023-05-16T02:16:23;-11160.47;;;-3.47;81.39
13954;BME280;7049;49.444;8.522;2023-05-16T02:21:25;-11160.47;;;-3.47;81.46
13954;BME280;7049;49.444;8.522;2023-05-16T02:26:26;-11160.47;;;-3.47;81.61
13954;BME280;7049;49.444;8.522;2023-05-16T02:31:30;-11160.47;;;-3.47;82.23
13954;BME280;7049;49.444;8.522;2023-05-16T02:36:33;-11160.47;;;-3.47;82.16
13954;BME280;7049;49.444;8.522;2023-05-16T02:41:38;-11160.47;;;-3.47;81.89
13954;BME280;7049;49.444;8.522;2023-05-16T02:46:40;-11160.47;;;-3.47;82.33
13954;BME280;7049;49.444;8.522;2023-05-16T02:51:42;-11160.47;;;-3.47;82.58
13954;BME280;7049;49.444;8.522;2023-05-16T02:56:44;-11160.47;;;-3.47;82.72
13954;BME280;7049;49.444;8.522;2023-05-16T03:01:47;-11160.47;;;-3.47;83.09
13954;BME280;7049;49.444;8.522;2023-05-16T03:06:48;-11160.47;;;-3.47;83.20
13954;BME280;7049;49.444;8.522;2023-05-16T03:11:50;-11160.47;;;-3.47;83.03
13954;BME280;7049;49.444;8.522;2023-05-16T03:16:53;-11160.47;;;-3.47;82.66
13954;BME280;7049;49.444;8.522;2023-05-16T03:21:54;-11160.47;;;-3.47;82.92
13954;BME280;7049;49.444;8.522;2023-05-16T03:26:56;-11160.47;;;-3.47;82.70
13954;BME280;7049;49.444;8.522;2023-05-16T03:32:00;-11160.47;;;-3.47;82.80
13954;BME280;7049;49.444;8.522;2023-05-16T03:37:03;-11160.47;;;-3.47;83.09
13954;BME280;7049;49.444;8.522;2023-05-16T03:42:05;-11160.47;;;-3.47;83.14
13954;BME280;7049;49.444;8.522;2023-05-16T03:47:08;-11160.47;;;-3.47;83.46
13954;BME280;7049;49.444;8.522;2023-05-16T03:52:09;-11160.47;;;-3.47;84.10
13954;BME280;7049;49.444;8.522;2023-05-16T03:57:13;-11160.47;;;-3.47;83.73
13954;BME280;7049;49.444;8.522;2023-05-16T04:02:16;-11160.47;;;-3.47;83.49
13954;BME280;7049;49.444;8.522;2023-05-16T04:07:18;-11160.47;;;-3.47;84.13
13954;BME280;7049;49.444;8.522;2023-05-16T04:12:19;-11160.47;;;-3.47;84.04
13954;BME280;7049;49.444;8.522;2023-05-16T04:17:22;-11160.47;;;-3.47;84.20
13954;BME280;7049;49.444;8.522;2023-05-16T04:22:23;-11160.47;;;-3.47;84.24
13954;BME280;7049;49.444;8.522;2023-05-16T04:27:25;-11160.47;;;-3.47;84.06
13954;BME280;7049;49.444;8.522;2023-05-16T04:32:28;-11160.47;;;-3.47;83.97
13954;BME280;7049;49.444;8.522;2023-05-16T04:37:29;-11160.47;;;-3.47;84.41
13954;BME280;7049;49.444;8.522;2023-05-16T04:42:31;-11160.47;;;-3.47;84.33
13954;BME280;7049;49.444;8.522;2023-05-16T04:47:34;-11160.47;;;-3.47;84.17
13954;BME280;7049;49.444;8.522;2023-05-16T04:52:35;-11160.47;;;-3.47;84.73
13954;BME280;7049;49.444;8.522;2023-05-16T04:57:37;-11160.47;;;-3.47;84.74
13954;BME280;7049;49.444;8.522;2023-05-16T05:02:40;-11160.47;;;-3.47;84.45
13954;BME280;7049;49.444;8.522;2023-05-16T05:07:42;-11160.47;;;-3.47;84.63
13954;BME280;7049;49.444;8.522;2023-05-16T05:12:46;-11160.47;;;-3.47;84.77
13954;BME280;7049;49.444;8.522;2023-05-16T05:17:49;-11160.47;;;-3.47;84.70
13954;BME280;7049;49.444;8.522;2023-05-16T05:22:52;-11160.47;;;-3.47;84.36
13954;BME280;7049;49.444;8.522;2023-05-16T05:27:53;-11160.47;;;-3.47;84.03
13954;BME280;7049;49.444;8.522;2023-05-16T05:32:56;-11160.47;;;-3.47;84.02
13954;BME280;7049;49.444;8.522;2023-05-16T05:37:57;-11160.47;;;-3.47;83.33
13954;BME280;7049;49.444;8.522;2023-05-16T05:42:59;-11160.47;;;-3.47;83.47
13954;BME280;7049;49.444;8.522;2023-05-16T05:48:01;-11160.47;;;-3.47;83.76
13954;BME280;7049;49.444;8.522;2023-05-16T05:53:03;-11160.47;;;-3.47;83.29
13954;BME280;7049;49.444;8.522;2023-05-16T05:58:04;-11160.47;;;-3.47;83.39
13954;BME280;7049;49.444;8.522;2023-05-16T06:03:07;-11160.47;;;-3.47;83.41
13954;BME280;7049;49.444;8.522;2023-05-16T06:08:09;-11160.47;;;-3.47;82.59
13954;BME280;7049;49.444;8.522;2023-05-16T06:13:10;-11160.47;;;-3.47;81.77
13954;BME280;7049;49.444;8.522;2023-05-16T06:18:13;-11160.47;;;-3.47;81.71
13954;BME280;7049;49.444;8.522;2023-05-16T06:23:14;-11160.47;;;-3.47;81.47
13954;BME280;7049;49.444;8.522;2023-05-16T06:28:16;-11160.47;;;-3.47;81.37
13954;BME280;7049;49.444;8.522;2023-05-16T06:33:19;-11160.47;;;-3.47;80.76
13954;BME280;7049;49.444;8.522;2023-05-16T06:38:20;-11160.47;;;-3.47;81.14
13954;BME280;7049;49.444;8.522;2023-05-16T06:43:22;-11160.47;;;-3.47;80.75
13954;BME280;7049;49.444;8.522;2023-05-16T06:48:24;-11160.47;;;-3.47;77.95
13954;BME280;7049;49.444;8.522;2023-05-16T06:53:26;-11160.47;;;-3.47;77.76
13954;BME280;7049;49.444;8.522;2023-05-16T06:58:27;-11160.47;;;-3.47;77.86
13954;BME280;7049;49.444;8.522;2023-05-16T07:03:31;-11160.47;;;-3.47;77.21
13954;BME280;7049;49.444;8.522;2023-05-16T07:08:32;-11160.47;;;-3.47;76.82
13954;BME280;7049;49.444;8.522;2023-05-16T07:13:35;-11160.47;;;-3.47;75.44
13954;BME280;7049;49.444;8.522;2023-05-16T07:18:37;-11160.47;;;-3.47;75.18
13954;BME280;7049;49.444;8.522;2023-05-16T07:23:39;-11160.47;;;-3.47;75.99
13954;BME280;7049;49.444;8.522;2023-05-16T07:28:40;-11160.47;;;-3.47;74.52
13954;BME280;7049;49.444;8.522;2023-05-16T07:33:44;-11160.47;;;-3.47;72.48
13954;BME280;7049;49.444;8.522;2023-05-16T07:38:46;-11160.47;;;-3.47;71.84
13954;BME280;7049;49.444;8.522;2023-05-16T07:43:47;-11160.47;;;-3.47;72.02
13954;BME280;7049;49.444;8.522;2023-05-16T07:48:50;-11160.47;;;-3.47;72.13
13954;BME280;7049;49.444;8.522;2023-05-16T07:53:51;-11160.47;;;-3.47;72.59
13954;BME280;7049;49.444;8.522;2023-05-16T07:58:53;-11160.47;;;-3.47;72.09
13954;BME280;7049;49.444;8.522;2023-05-16T08:03:56;-11160.47;;;-3.47;72.47
13954;BME280;7049;49.444;8.522;2023-05-16T08:08:57;-11160.47;;;-3.47;72.41
13954;BME280;7049;49.444;8.522;2023-05-16T08:13:59;-11160.47;;;-3.47;71.61
13954;BME280;7049;49.444;8.522;2023-05-16T08:19:01;-11160.47;;;-3.47;72.18
13954;BME280;7049;49.444;8.522;2023-05-16T08:24:03;-11160.47;;;-3.47;72.12
13954;BME280;7049;49.444;8.522;2023-05-16T08:29:05;-11160.47;;;-3.47;70.88
13954;BME280;7049;49.444;8.522;2023-05-16T08:34:09;-11160.47;;;-3.47;71.80
13954;BME280;7049;49.444;8.522;2023-05-16T08:39:11;-11160.47;;;-3.47;71.06
13954;BME280;7049;49.444;8.522;2023-05-16T08:44:12;-11160.47;;;-3.47;71.41
13954;BME280;7049;49.444;8.522;2023-05-16T08:49:22;-11160.47;;;-3.47;71.41
13954;BME280;7049;49.444;8.522;2023-05-16T08:54:24;-11160.47;;;-3.47;70.97
13954;BME280;7049;49.444;8.522;2023-05-16T08:59:27;-11160.47;;;-3.47;69.06
13954;BME280;7049;49.444;8.522;2023-05-16T09:04:31;-11160.47;;;-3.47;69.18
13954;BME280;7049;49.444;8.522;2023-05-16T09:09:33;-11160.47;;;-3.47;70.45
13954;BME280;7049;49.444;8.522;2023-05-16T09:14:36;-11160.47;;;-3.47;69.94
13954;BME280;7049;49.444;8.522;2023-05-16T09:19:41;-11160.47;;;-3.47;66.91
13954;BME280;7049;49.444;8.522;2023-05-16T09:24:44;-11160.47;;;-3.47;66.45
13954;BME280;7049;49.444;8.522;2023-05-16T09:29:50;-11160.47;;;-3.47;66.74
13954;BME280;7049;49.444;8.522;2023-05-16T09:34:54;-11160.47;;;-3.47;67.86
13954;BME280;7049;49.444;8.522;2023-05-16T09:39:58;-11160.47;;;-3.47;68.14
13954;BME280;7049;49.444;8.522;2023-05-16T09:45:03;-11160.47;;;-3.47;67.58
13954;BME280;7049;49.444;8.522;2023-05-16T09:50:08;-11160.47;;;-3.47;67.74
13954;BME280;7049;49.444;8.522;2023-05-16T09:55:11;-11160.47;;;-3.47;64.95
13954;BME280;7049;49.444;8.522;2023-05-16T10:00:20;-11160.47;;;-3.47;64.36
13954;BME280;7049;49.444;8.522;2023-05-16T10:05:27;-11160.47;;;-3.47;65.79
13954;BME280;7049;49.444;8.522;2023-05-16T10:10:29;-11160.47;;;-3.47;66.88
13954;BME280;7049;49.444;8.522;2023-05-16T10:15:34;-11160.47;;;-3.47;68.03
13954;BME280;7049;49.444;8.522;2023-05-16T10:20:41;-11160.47;;;-3.47;68.07
13954;BME280;7049;49.444;8.522;2023-05-16T10:25:51;-11160.47;;;-3.47;67.51
13954;BME280;7049;49.444;8.522;2023-05-16T10:31:01;-11160.47;;;-3.47;66.37
13954;BME280;7049;49.444;8.522;2023-05-16T10:36:06;-11160.47;;;-3.47;65.02
13954;BME280;7049;49.444;8.522;2023-05-16T10:41:09;-11160.47;;;-3.47;64.79
13954;BME280;7049;49.444;8.522;2023-05-16T10:46:13;-11160.47;;;-3.47;64.36
13954;BME280;7049;49.444;8.522;2023-05-16T10:51:34;-11160.47;;;-3.47;65.04
13954;BME280;7049;49.444;8.522;2023-05-16T10:56:36;-11160.47;;;-3.47;64.37
13954;BME280;7049;49.444;8.522;2023-05-16T11:01:39;-11160.47;;;-3.47;64.19
13954;BME280;7049;49.444;8.522;2023-05-16T11:06:49;-11160.47;;;-3.47;62.65
13954;BME280;7049;49.444;8.522;2023-05-16T11:11:57;-11160.47;;;-3.47;62.00
13954;BME280;7049;49.444;8.522;2023-05-16T11:17:01;-11160.47;;;-3.47;62.44
13954;BME280;7049;49.444;8.522;2023-05-16T11:22:09;-11160.47;;;-3.47;61.70
13954;BME280;7049;49.444;8.522;2023-05-16T11:27:13;-11160.47;;;-3.47;61.72
13954;BME280;7049;49.444;8.522;2023-05-16T11:32:21;-11160.47;;;-3.47;62.64
13954;BME280;7049;49.444;8.522;2023-05-16T11:37:24;-11160.47;;;-3.47;63.04
13954;BME280;7049;49.444;8.522;2023-05-16T11:42:28;-11160.47;;;-3.47;63.41
13954;BME280;7049;49.444;8.522;2023-05-16T11:47:30;-11160.47;;;-3.47;63.34
13954;BME280;7049;49.444;8.522;2023-05-16T11:52:33;-11160.47;;;-3.47;61.84
13954;BME280;7049;49.444;8.522;2023-05-16T11:57:35;-11160.47;;;-3.47;61.05
13954;BME280;7049;49.444;8.522;2023-05-16T12:02:38;-11160.47;;;-3.47;61.33
13954;BME280;7049;49.444;8.522;2023-05-16T12:07:42;-11160.47;;;-3.47;61.20
13954;BME280;7049;49.444;8.522;2023-05-16T12:12:45;-11160.47;;;-3.47;61.45
13954;BME280;7049;49.444;8.522;2023-05-16T12:17:48;-11160.47;;;-3.47;58.62
13954;BME280;7049;49.444;8.522;2023-05-16T12:22:51;-11160.47;;;-3.47;57.27
13954;BME280;7049;49.444;8.522;2023-05-16T12:27:52;-11160.47;;;-3.47;56.60
13954;BME280;7049;49.444;8.522;2023-05-16T12:32:55;-11160.47;;;-3.47;56.15
13954;BME280;7049;49.444;8.522;2023-05-16T12:37:58;-11160.47;;;-3.47;55.19
13954;BME280;7049;49.444;8.522;2023-05-16T12:43:02;-11160.47;;;-3.47;55.02
13954;BME280;7049;49.444;8.522;2023-05-16T12:48:04;-11160.47;;;-3.47;53.28
13954;BME280;7049;49.444;8.522;2023-05-16T12:53:12;-11160.47;;;-3.47;53.11
13954;BME280;7049;49.444;8.522;2023-05-16T12:58:13;-11160.47;;;-3.47;49.56
13954;BME280;7049;49.444;8.522;2023-05-16T13:03:15;-11160.47;;;-3.47;48.57
13954;BME280;7049;49.444;8.522;2023-05-16T13:08:18;-11160.47;;;-3.47;47.20
13954;BME280;7049;49.444;8.522;2023-05-16T13:13:19;-11160.47;;;-3.47;46.16
13954;BME280;7049;49.444;8.522;2023-05-16T13:18:21;-11160.47;;;-3.47;44.63
13954;BME280;7049;49.444;8.522;2023-05-16T13:23:24;-11160.47;;;-3.47;43.43
13954;BME280;7049;49.444;8.522;2023-05-16T13:28:26;-11160.47;;;-3.47;43.61
13954;BME280;7049;49.444;8.522;2023-05-16T13:33:28;-11160.47;;;-3.47;43.43
13954;BME280;7049;49.444;8.522;2023-05-16T13:38:31;-11160.47;;;-3.47;43.24
13954;BME280;7049;49.444;8.522;2023-05-16T13:43:32;-11160.47;;;-3.47;42.79
13954;BME280;7049;49.444;8.522;2023-05-16T13:48:34;-11160.47;;;-3.47;41.04
13954;BME280;7049;49.444;8.522;2023-05-16T13:53:36;-11160.47;;;-3.47;40.47
13954;BME280;7049;49.444;8.522;2023-05-16T13:58:38;-11160.47;;;-3.47;39.83
13954;BME280;7049;49.444;8.522;2023-05-16T14:03:40;-11160.47;;;-3.47;39.49
13954;BME280;7049;49.444;8.522;2023-05-16T14:08:42;-11160.47;;;-3.47;38.74
13954;BME280;7049;49.444;8.522;2023-05-16T14:13:44;-11160.47;;;-3.47;38.68
13954;BME280;7049;49.444;8.522;2023-05-16T14:18:46;-11160.47;;;-3.47;39.22
13954;BME280;7049;49.444;8.522;2023-05-16T14:23:51;-11160.47;;;-3.47;38.69
13954;BME280;7049;49.444;8.522;2023-05-16T14:28:52;-11160.47;;;-3.47;38.50
13954;BME280;7049;49.444;8.522;2023-05-16T14:33:55;-11160.47;;;-3.47;38.28
13954;BME280;7049;49.444;8.522;2023-05-16T14:38:58;-11160.47;;;-3.47;37.91
13954;BME280;7049;49.444;8.522;2023-05-16T14:43:59;-11160.47;;;-3.47;36.49
13954;BME280;7049;49.444;8.522;2023-05-16T14:49:01;-11160.47;;;-3.47;35.60
13954;BME280;7049;49.444;8.522;2023-05-16T14:54:04;-11160.47;;;-3.47;35.08
13954;BME280;7049;49.444;8.522;2023-05-16T14:59:08;-11160.47;;;-3.47;34.87
13954;BME280;7049;49.444;8.522;2023-05-16T15:04:10;-11160.47;;;-3.47;33.88
13954;BME280;7049;49.444;8.522;2023-05-16T15:09:13;-11160.47;;;-3.47;33.43
13954;BME280;7049;49.444;8.522;2023-05-16T15:14:14;-11160.47;;;-3.47;32.33
13954;BME280;7049;49.444;8.522;2023-05-16T15:19:16;-11160.47;;;-3.47;31.88
13954;BME280;7049;49.444;8.522;2023-05-16T15:24:18;-11160.47;;;-3.47;30.95
13954;BME280;7049;49.444;8.522;2023-05-16T15:29:20;-11160.47;;;-3.47;30.76
13954;BME280;7049;49.444;8.522;2023-05-16T15:34:21;-11160.47;;;-3.47;30.75
13954;BME280;7049;49.444;8.522;2023-05-16T15:39:24;-11160.47;;;-3.47;30.27
13954;BME280;7049;49.444;8.522;2023-05-16T15:44:25;-11160.47;;;-3.47;29.99
13954;BME280;7049;49.444;8.522;2023-05-16T15:49:27;-11160.47;;;-3.47;30.57
13954;BME280;7049;49.444;8.522;2023-05-16T15:54:30;-11160.47;;;-3.47;30.80
13954;BME280;7049;49.444;8.522;2023-05-16T15:59:31;-11160.47;;;-3.47;30.38
13954;BME280;7049;49.444;8.522;2023-05-16T16:04:33;-11160.47;;;-3.47;30.36
13954;BME280;7049;49.444;8.522;2023-05-16T16:09:39;-11160.47;;;-3.47;30.85
13954;BME280;7049;49.444;8.522;2023-05-16T16:14:42;-11160.47;;;-3.47;30.69
13954;BME280;7049;49.444;8.522;2023-05-16T16:19:45;-11160.47;;;-3.47;30.47
13954;BME280;7049;49.444;8.522;2023-05-16T16:24:53;-11160.47;;;-3.47;30.34
13954;BME280;7049;49.444;8.522;2023-05-16T16:29:55;-11160.47;;;-3.47;30.20
13954;BME280;7049;49.444;8.522;2023-05-16T16:35:04;-11160.47;;;-3.47;30.27
13954;BME280;7049;49.444;8.522;2023-05-16T16:40:11;-11160.47;;;-3.47;30.45
13954;BME280;7049;49.444;8.522;2023-05-16T16:45:13;-11160.47;;;-3.47;30.54
13954;BME280;7049;49.444;8.522;2023-05-16T16:50:15;-11160.47;;;-3.47;30.75
13954;BME280;7049;49.444;8.522;2023-05-16T16:55:18;-11160.47;;;-3.47;30.54
13954;BME280;7049;49.444;8.522;2023-05-16T17:00:20;-11160.47;;;-3.47;29.83
13954;BME280;7049;49.444;8.522;2023-05-16T17:05:21;-11160.47;;;-3.47;30.14
13954;BME280;7049;49.444;8.522;2023-05-16T17:10:24;-11160.47;;;-3.47;30.20
13954;BME280;7049;49.444;8.522;2023-05-16T17:15:25;-11160.47;;;-3.47;30.25
13954;BME280;7049;49.444;8.522;2023-05-16T17:20:27;-11160.47;;;-3.47;30.38
13954;BME280;7049;49.444;8.522;2023-05-16T17:25:30;-11160.47;;;-3.47;31.21
13954;BME280;7049;49.444;8.522;2023-05-16T17:30:34;-11160.47;;;-3.47;31.72
13954;BME280;7049;49.444;8.522;2023-05-16T17:35:35;-11160.47;;;-3.47;31.95
13954;BME280;7049;49.444;8.522;2023-05-16T17:40:38;-11160.47;;;-3.47;31.95
13954;BME280;7049;49.444;8.522;2023-05-16T17:45:40;-11160.47;;;-3.47;31.56
13954;BME280;7049;49.444;8.522;2023-05-16T17:50:42;-11160.47;;;-3.47;31.33
13954;BME280;7049;49.444;8.522;2023-05-16T17:55:45;-11160.47;;;-3.47;31.67
13954;BME280;7049;49.444;8.522;2023-05-16T18:00:46;-11160.47;;;-3.47;31.71
13954;BME280;7049;49.444;8.522;2023-05-16T18:05:48;-11160.47;;;-3.47;31.68
13954;BME280;7049;49.444;8.522;2023-05-16T18:10:54;-11160.47;;;-3.47;32.02
13954;BME280;7049;49.444;8.522;2023-05-16T18:15:57;-11160.47;;;-3.47;31.98
13954;BME280;7049;49.444;8.522;2023-05-16T18:21:06;-11160.47;;;-3.47;31.95
13954;BME280;7049;49.444;8.522;2023-05-16T18:26:10;-11160.47;;;-3.47;32.65
13954;BME280;7049;49.444;8.522;2023-05-16T18:31:20;-11160.47;;;-3.47;32.72
13954;BME280;7049;49.444;8.522;2023-05-16T18:36:31;-11160.47;;;-3.47;33.12
13954;BME280;7049;49.444;8.522;2023-05-16T18:41:51;-11160.47;;;-3.47;33.58
13954;BME280;7049;49.444;8.522;2023-05-16T18:47:01;-11160.47;;;-3.47;33.92
13954;BME280;7049;49.444;8.522;2023-05-16T18:52:05;-11160.47;;;-3.47;33.90
13954;BME280;7049;49.444;8.522;2023-05-16T18:57:16;-11160.47;;;-3.47;34.06
13954;BME280;7049;49.444;8.522;2023-05-16T19:02:25;-11160.47;;;-3.47;34.23
13954;BME280;7049;49.444;8.522;2023-05-16T19:07:30;-11160.47;;;-3.47;34.81
13954;BME280;7049;49.444;8.522;2023-05-16T19:12:37;-11160.47;;;-3.47;35.17
13954;BME280;7049;49.444;8.522;2023-05-16T19:17:40;-11160.47;;;-3.47;35.13
13954;BME280;7049;49.444;8.522;2023-05-16T19:22:46;-11160.47;;;-3.47;35.24
13954;BME280;7049;49.444;8.522;2023-05-16T19:27:54;-11160.47;;;-3.47;35.31
13954;BME280;7049;49.444;8.522;2023-05-16T19:33:07;-11160.47;;;-3.47;35.49
13954;BME280;7049;49.444;8.522;2023-05-16T19:38:16;-11160.47;;;-3.47;35.43
13954;BME280;7049;49.444;8.522;2023-05-16T19:43:23;-11160.47;;;-3.47;35.55
13954;BME280;7049;49.444;8.522;2023-05-16T19:48:32;-11160.47;;;-3.47;36.08
13954;BME280;7049;49.444;8.522;2023-05-16T19:53:34;-11160.47;;;-3.47;36.24
13954;BME280;7049;49.444;8.522;2023-05-16T19:58:38;-11160.47;;;-3.47;36.37
13954;BME280;7049;49.444;8.522;2023-05-16T20:03:45;-11160.47;;;-3.47;36.88
13954;BME280;7049;49.444;8.522;2023-05-16T20:08:49;-11160.47;;;-3.47;37.11
13954;BME280;7049;49.444;8.522;2023-05-16T20:13:55;-11160.47;;;-3.47;37.37
13954;BME280;7049;49.444;8.522;2023-05-16T20:18:59;-11160.47;;;-3.47;37.30
13954;BME280;7049;49.444;8.522;2023-05-16T20:24:06;-11160.47;;;-3.47;37.35
13954;BME280;7049;49.444;8.522;2023-05-16T20:29:13;-11160.47;;;-3.47;37.25
13954;BME280;7049;49.444;8.522;2023-05-16T20:34:26;-11160.47;;;-3.47;37.37
13954;BME280;7049;49.444;8.522;2023-05-16T20:39:28;-11160.47;;;-3.47;37.41
13954;BME280;7049;49.444;8.522;2023-05-16T20:44:40;-11160.47;;;-3.47;37.79
13954;BME280;7049;49.444;8.522;2023-05-16T20:49:45;-11160.47;;;-3.47;37.83
13954;BME280;7049;49.444;8.522;2023-05-16T20:54:47;-11160.47;;;-3.47;38.27
13954;BME280;7049;49.444;8.522;2023-05-16T20:59:52;-11160.47;;;-3.47;38.54
13954;BME280;7049;49.444;8.522;2023-05-16T21:04:59;-11160.47;;;-3.47;38.94
13954;BME280;7049;49.444;8.522;2023-05-16T21:10:06;-11160.47;;;-3.47;39.17
13954;BME280;7049;49.444;8.522;2023-05-16T21:15:12;-11160.47;;;-3.47;39.63
13954;BME280;7049;49.444;8.522;2023-05-16T21:20:16;-11160.47;;;-3.47;39.97
13954;BME280;7049;49.444;8.522;2023-05-16T21:25:24;-11160.47;;;-3.47;40.18
13954;BME280;7049;49.444;8.522;2023-05-16T21:30:30;-11160.47;;;-3.47;40.13
13954;BME280;7049;49.444;8.522;2023-05-16T21:35:37;-11160.47;;;-3.47;40.28
13954;BME280;7049;49.444;8.522;2023-05-16T21:40:41;-11160.47;;;-3.47;40.39
13954;BME280;7049;49.444;8.522;2023-05-16T21:45:45;-11160.47;;;-3.47;41.07
13954;BME280;7049;49.444;8.522;2023-05-16T21:50:46;-11160.47;;;-3.47;41.62
13954;BME280;7049;49.444;8.522;2023-05-16T21:55:47;-11160.47;;;-3.47;42.02
13954;BME280;7049;49.444;8.522;2023-05-16T22:00:50;-11160.47;;;-3.47;43.01
13954;BME280;7049;49.444;8.522;2023-05-16T22:05:52;-11160.47;;;-3.47;43.02
13954;BME280;7049;49.444;8.522;2023-05-16T22:10:53;-11160.47;;;-3.47;43.87
13954;BME280;7049;49.444;8.522;2023-05-16T22:15:56;-11160.47;;;-3.47;44.32
13954;BME280;7049;49.444;8.522;2023-05-16T22:20:57;-11160.47;;;-3.47;44.51
13954;BME280;7049;49.444;8.522;2023-05-16T22:25:59;-11160.47;;;-3.47;44.96
13954;BME280;7049;49.444;8.522;2023-05-16T22:31:02;-11160.47;;;-3.47;45.21
13954;BME280;7049;49.444;8.522;2023-05-16T22:36:03;-11160.47;;;-3.47;45.67
13954;BME280;7049;49.444;8.522;2023-05-16T22:41:05;-11160.47;;;-3.47;46.01
13954;BME280;7049;49.444;8.522;2023-05-16T22:46:09;-11160.47;;;-3.47;46.79
13954;BME280;7049;49.444;8.522;2023-05-16T22:51:10;-11160.47;;;-3.47;47.13
13954;BME280;7049;49.444;8.522;2023-05-16T22:56:12;-11160.47;;;-3.47;48.04
13954;BME280;7049;49.444;8.522;2023-05-16T23:01:15;-11160.47;;;-3.47;48.57
13954;BME280;7049;49.444;8.522;2023-05-16T23:06:16;-11160.47;;;-3.47;49.09
13954;BME280;7049;49.444;8.522;2023-05-16T23:11:19;-11160.47;;;-3.47;50.14
13954;BME280;7049;49.444;8.522;2023-05-16T23:16:25;-11160.47;;;-3.47;50.49
13954;BME280;7049;49.444;8.522;2023-05-16T23:21:26;-11160.47;;;-3.47;51.06
13954;BME280;7049;49.444;8.522;2023-05-16T23:26:28;-11160.47;;;-3.47;51.64
13954;BME280;7049;49.444;8.522;2023-05-16T23:31:31;-11160.47;;;-3.47;51.83
13954;BME280;7049;49.444;8.522;2023-05-16T23:36:33;-11160.47;;;-3.47;52.44
13954;BME280;7049;49.444;8.522;2023-05-16T23:41:34;-11160.47;;;-3.47;52.74
13954;BME280;7049;49.444;8.522;2023-05-16T23:46:37;-11160.47;;;-3.47;53.19
13954;BME280;7049;49.444;8.522;2023-05-16T23:51:39;-11160.47;;;-3.47;53.57
13954;BME280;7049;49.444;8.522;2023-05-16T23:56:40;-11160.47;;;-3.47;54.26
